Time;durP1;ratioP1;P1;durP2;ratioP2;P2;SDS_P1;SDS_P2;PMS_P1;PMS_P2;Temp;Humidity;BMP_temperature;BMP_pressure;BME280_temperature;BME280_humidity;BME280_pressure;Samples;Min_cycle;Max_cycle;Signal;HPM_P1;HPM_P2
2022/05/18 00:00:32;;;;;;;;;;;;;;;8.05;47.04;99232.77;1718267;83;20121;-65
2022/05/18 00:03:08;;;;;;;;;;;;;;;8.06;47.45;99239.86;1718475;83;20416;-64
2022/05/18 00:05:38;;;;;;;;;;;;;;;8.06;47.44;99235.75;1717877;83;20113;-64
2022/05/18 00:08:05;;;;;;;;;;;;;;;8.02;47.56;99239.66;1718203;83;21171;-64
2022/05/18 00:10:32;;;;;;;;;;;;;;;8.00;48.37;99233.69;1718493;83;20096;-64
2022/05/18 00:12:59;;;;;;;;;;;;;;;7.97;48.43;99232.94;1718161;83;20169;-64
2022/05/18 00:15:26;;;;;;;;;;;;;;;7.95;48.76;99235.16;1718364;83;20085;-64
2022/05/18 00:17:53;;;;;;;;;;;;;;;7.93;48.65;99234.10;1718571;83;20105;-64
2022/05/18 00:20:20;;;;;;;;;;;;;;;7.97;48.58;99241.69;1718391;83;21782;-64
2022/05/18 00:22:55;;;;;;;;;;;;;;;7.94;48.74;99241.74;1718180;82;20133;-65
2022/05/18 00:25:28;;;;;;;;;;;;;;;7.91;48.98;99240.43;1718643;83;20077;-64
2022/05/18 00:27:55;;;;;;;;;;;;;;;7.88;49.20;99245.70;1718369;83;20077;-65
2022/05/18 00:30:21;;;;;;;;;;;;;;;7.82;49.44;99251.02;1718654;83;20121;-64
2022/05/18 00:32:49;;;;;;;;;;;;;;;7.74;49.76;99251.17;1718326;83;21145;-64
2022/05/18 00:35:15;;;;;;;;;;;;;;;7.66;49.85;99253.80;1718503;83;20405;-64
2022/05/18 00:37:43;;;;;;;;;;;;;;;7.56;50.42;99258.34;1718358;83;20085;-64
2022/05/18 00:40:11;;;;;;;;;;;;;;;7.46;50.87;99264.03;1718201;83;20085;-64
2022/05/18 00:42:37;;;;;;;;;;;;;;;7.39;51.14;99271.00;1718388;83;20420;-65
2022/05/18 00:45:06;;;;;;;;;;;;;;;7.32;51.48;99272.76;1718188;83;20584;-64
2022/05/18 00:47:33;;;;;;;;;;;;;;;7.22;52.13;99275.11;1718252;83;20097;-64
2022/05/18 00:50:08;;;;;;;;;;;;;;;7.15;52.38;99276.05;1718244;83;20113;-64
2022/05/18 00:52:37;;;;;;;;;;;;;;;7.06;52.90;99280.58;1718204;83;20085;-65
2022/05/18 00:55:08;;;;;;;;;;;;;;;7.00;53.98;99278.23;1718468;83;20090;-64
2022/05/18 00:57:36;;;;;;;;;;;;;;;6.93;54.14;99278.64;1718437;83;21131;-64
2022/05/18 01:00:08;;;;;;;;;;;;;;;6.90;54.93;99281.97;1718192;83;20097;-64
2022/05/18 01:02:36;;;;;;;;;;;;;;;6.84;55.43;99279.06;1718274;83;20090;-64
2022/05/18 01:05:05;;;;;;;;;;;;;;;6.77;55.89;99287.63;1718213;83;20121;-65
2022/05/18 01:07:37;;;;;;;;;;;;;;;6.72;56.66;99282.24;1718373;83;20468;-65
2022/05/18 01:10:04;;;;;;;;;;;;;;;6.66;57.09;99283.98;1718528;83;21128;-64
2022/05/18 01:12:31;;;;;;;;;;;;;;;6.60;57.70;99285.97;1717499;83;20097;-65
2022/05/18 01:15:05;;;;;;;;;;;;;;;6.54;57.74;99286.60;1704301;83;20441;-64
2022/05/18 01:17:38;;;;;;;;;;;;;;;6.51;58.04;99285.02;1704835;84;20097;-65
2022/05/18 01:20:08;;;;;;;;;;;;;;;6.46;58.32;99294.63;1704508;83;36365;-64
2022/05/18 01:22:44;;;;;;;;;;;;;;;6.38;58.58;99289.84;1704826;83;21174;-64
2022/05/18 01:25:34;;;;;;;;;;;;;;;6.33;59.00;99297.56;1704724;84;20101;-64
2022/05/18 01:28:00;;;;;;;;;;;;;;;6.26;59.53;99293.03;1704876;84;20448;-64
2022/05/18 01:30:28;;;;;;;;;;;;;;;6.17;59.92;99296.15;1704725;83;20141;-64
2022/05/18 01:32:56;;;;;;;;;;;;;;;6.07;60.85;99288.91;1704830;84;20148;-64
2022/05/18 01:35:26;;;;;;;;;;;;;;;6.01;60.99;99295.53;1704765;84;21757;-64
2022/05/18 01:37:57;;;;;;;;;;;;;;;5.96;61.20;99298.31;1704794;84;20097;-64
2022/05/18 01:40:43;;;;;;;;;;;;;;;5.91;61.80;99292.92;1704446;83;20084;-64
2022/05/18 01:43:19;;;;;;;;;;;;;;;5.85;62.36;99295.42;1714104;82;20121;-65
2022/05/18 01:45:56;;;;;;;;;;;;;;;5.82;62.50;99293.27;1714405;82;20160;-64
2022/05/18 01:48:25;;;;;;;;;;;;;;;5.75;62.76;99301.02;1704457;83;21136;-64
2022/05/18 01:50:52;;;;;;;;;;;;;;;5.68;63.52;99304.08;1704773;84;20170;-64
2022/05/18 01:53:18;;;;;;;;;;;;;;;5.61;63.96;99304.98;1704784;84;20119;-64
2022/05/18 01:55:46;;;;;;;;;;;;;;;5.54;64.47;99308.05;1719661;83;20116;-64
2022/05/18 01:58:13;;;;;;;;;;;;;;;5.47;64.94;99308.93;1733819;82;20087;-65
2022/05/18 02:00:40;;;;;;;;;;;;;;;5.43;65.55;99313.88;1734073;82;21147;-65
2022/05/18 02:03:07;;;;;;;;;;;;;;;5.39;66.08;99312.83;1733929;83;20423;-64
2022/05/18 02:05:34;;;;;;;;;;;;;;;5.36;66.32;99312.03;1733946;83;20108;-64
2022/05/18 02:08:00;;;;;;;;;;;;;;;5.33;67.27;99306.62;1734057;83;20098;-64
2022/05/18 02:10:26;;;;;;;;;;;;;;;5.31;67.43;99306.91;1734027;82;20182;-64
2022/05/18 02:12:53;;;;;;;;;;;;;;;5.30;67.54;99308.00;1734931;82;21149;-64
2022/05/18 02:15:19;;;;;;;;;;;;;;;5.26;67.76;99308.31;1747891;82;20083;-65
2022/05/18 02:17:45;;;;;;;;;;;;;;;5.22;67.97;99311.89;1739327;82;20121;-65
2022/05/18 02:20:12;;;;;;;;;;;;;;;5.20;68.40;99316.84;1727301;81;20448;-64
2022/05/18 02:22:38;;;;;;;;;;;;;;;5.20;69.18;99318.20;1718180;82;20121;-65
2022/05/18 02:25:06;;;;;;;;;;;;;;;5.22;69.53;99317.33;1718325;83;21154;-65
2022/05/18 02:27:34;;;;;;;;;;;;;;;5.23;69.65;99317.05;1718186;83;20097;-64
2022/05/18 02:30:01;;;;;;;;;;;;;;;5.25;69.86;99317.58;1746296;82;20083;-64
2022/05/18 02:32:28;;;;;;;;;;;;;;;5.21;70.20;99324.69;1747906;82;20095;-64
2022/05/18 02:34:54;;;;;;;;;;;;;;;5.21;71.57;99318.43;1747934;82;20170;-65
2022/05/18 02:37:20;;;;;;;;;;;;;;;5.29;71.53;99320.53;1748020;81;21154;-64
2022/05/18 02:39:47;;;;;;;;;;;;;;;5.40;72.07;99322.06;1747964;81;20106;-64
2022/05/18 02:42:13;;;;;;;;;;;;;;;5.46;71.29;99325.55;1747932;82;20099;-64
2022/05/18 02:44:40;;;;;;;;;;;;;;;5.44;71.98;99331.83;1748026;82;20483;-64
2022/05/18 02:47:06;;;;;;;;;;;;;;;5.43;71.99;99325.58;1747944;81;20433;-63
2022/05/18 02:49:32;;;;;;;;;;;;;;;5.48;72.17;99331.52;1747876;82;21105;-63
2022/05/18 02:51:59;;;;;;;;;;;;;;;5.47;72.54;99334.80;1747933;81;20096;-63
2022/05/18 02:57:12;;;;;;;;;;;;;;;5.50;72.54;99333.41;1748196;81;20107;-62
2022/05/18 02:59:39;;;;;;;;;;;;;;;5.52;72.77;99337.47;1748058;82;20175;-63
2022/05/18 03:02:07;;;;;;;;;;;;;;;5.56;72.72;99333.62;1748174;81;20438;-63
2022/05/18 03:04:34;;;;;;;;;;;;;;;5.59;73.31;99337.13;1748225;81;20430;-63
2022/05/18 03:07:01;;;;;;;;;;;;;;;5.64;72.81;99337.89;1748196;81;20107;-63
2022/05/18 03:09:27;;;;;;;;;;;;;;;5.66;73.01;99339.52;1748137;81;20154;-63
2022/05/18 03:11:53;;;;;;;;;;;;;;;5.60;72.58;99338.75;1748143;82;20071;-63
2022/05/18 03:14:20;;;;;;;;;;;;;;;5.50;72.71;99342.39;1748080;81;22066;-64
2022/05/18 03:16:46;;;;;;;;;;;;;;;5.41;73.25;99337.85;1748113;82;20111;-63
2022/05/18 03:19:13;;;;;;;;;;;;;;;5.35;73.52;99339.80;1747204;82;20099;-63
2022/05/18 03:24:25;;;;;;;;;;;;;;;5.28;74.34;99351.02;1748100;82;20108;-63
2022/05/18 03:26:52;;;;;;;;;;;;;;;5.27;74.66;99348.04;1747544;81;21155;-63
2022/05/18 03:29:19;;;;;;;;;;;;;;;5.30;75.02;99346.66;1747670;81;20445;-63
2022/05/18 03:31:47;;;;;;;;;;;;;;;5.35;74.98;99352.60;1747620;82;20075;-63
2022/05/18 03:34:14;;;;;;;;;;;;;;;5.37;74.99;99351.22;1747531;82;20103;-63
2022/05/18 03:36:41;;;;;;;;;;;;;;;5.39;75.33;99353.66;1747591;82;20123;-63
2022/05/18 03:39:09;;;;;;;;;;;;;;;5.39;75.43;99359.10;1747624;82;21270;-63
2022/05/18 03:41:36;;;;;;;;;;;;;;;5.44;76.61;99359.06;1747708;82;20091;-63
2022/05/18 03:44:04;;;;;;;;;;;;;;;5.58;76.30;99355.93;1747535;81;20095;-64
2022/05/18 03:46:30;;;;;;;;;;;;;;;5.61;75.40;99359.44;1747641;82;20407;-63
2022/05/18 03:48:58;;;;;;;;;;;;;;;5.54;75.44;99361.69;1747455;82;20087;-64
2022/05/18 03:51:24;;;;;;;;;;;;;;;5.52;75.58;99360.61;1747627;82;21762;-64
2022/05/18 03:53:51;;;;;;;;;;;;;;;5.57;75.79;99364.65;1747496;81;20164;-64
2022/05/18 03:56:17;;;;;;;;;;;;;;;5.67;76.01;99367.02;1747847;81;20083;-65
2022/05/18 03:58:45;;;;;;;;;;;;;;;5.74;75.86;99367.48;1747831;81;20115;-63
2022/05/18 04:01:11;;;;;;;;;;;;;;;5.73;75.83;99365.86;1747773;82;20151;-64
2022/05/18 04:03:43;;;;;;;;;;;;;;;5.73;75.95;99361.77;1747821;82;21163;-63
2022/05/18 04:06:10;;;;;;;;;;;;;;;5.74;76.24;99365.57;1747676;81;20095;-63
2022/05/18 04:08:37;;;;;;;;;;;;;;;5.77;76.15;99365.55;1747792;81;20126;-65
2022/05/18 04:11:05;;;;;;;;;;;;;;;5.80;76.50;99367.11;1747872;82;20135;-64
2022/05/18 04:13:32;;;;;;;;;;;;;;;5.90;76.65;99364.86;1743705;81;20489;-63
2022/05/18 04:15:58;;;;;;;;;;;;;;;6.06;76.76;99370.41;1747962;81;21143;-63
2022/05/18 04:18:25;;;;;;;;;;;;;;;6.26;75.98;99370.72;1747700;82;20099;-63
2022/05/18 04:20:52;;;;;;;;;;;;;;;6.44;75.77;99370.47;1747649;80;20091;-64
2022/05/18 04:23:19;;;;;;;;;;;;;;;6.59;75.17;99372.44;1742586;82;20087;-64
2022/05/18 04:25:46;;;;;;;;;;;;;;;6.70;74.70;99373.12;1732821;81;20117;-63
2022/05/18 04:28:15;;;;;;;;;;;;;;;6.79;73.98;99376.00;1736234;82;21167;-63
2022/05/18 04:30:43;;;;;;;;;;;;;;;6.83;73.88;99379.76;1717952;83;20097;-64
2022/05/18 04:33:12;;;;;;;;;;;;;;;6.88;73.92;99374.23;1718268;83;20085;-64
2022/05/18 04:35:38;;;;;;;;;;;;;;;6.95;73.79;99372.72;1728592;82;20117;-64
2022/05/18 04:38:05;;;;;;;;;;;;;;;6.97;73.03;99372.42;1742506;82;20103;-65
2022/05/18 04:40:32;;;;;;;;;;;;;;;6.93;73.13;99375.52;1718042;83;21255;-64
2022/05/18 04:42:58;;;;;;;;;;;;;;;6.90;73.50;99374.74;1725643;82;20454;-64
2022/05/18 04:45:25;;;;;;;;;;;;;;;6.90;73.58;99372.83;1737975;82;20111;-64
2022/05/18 04:47:52;;;;;;;;;;;;;;;6.96;73.50;99381.72;1740852;82;20403;-65
2022/05/18 04:50:19;;;;;;;;;;;;;;;6.98;73.61;99382.23;1722110;82;20134;-64
2022/05/18 04:52:46;;;;;;;;;;;;;;;6.96;73.60;99383.89;1730291;82;21136;-64
2022/05/18 04:55:12;;;;;;;;;;;;;;;6.94;73.46;99382.56;1717369;83;20420;-64
2022/05/18 04:57:39;;;;;;;;;;;;;;;6.92;73.89;99386.98;1718180;83;20085;-64
2022/05/18 05:00:07;;;;;;;;;;;;;;;6.93;73.92;99391.89;1718102;83;20442;-64
2022/05/18 05:02:36;;;;;;;;;;;;;;;6.87;74.12;99388.42;1719501;82;20138;-65
2022/05/18 05:05:05;;;;;;;;;;;;;;;6.86;74.09;99398.27;1736035;82;21215;-65
2022/05/18 05:07:34;;;;;;;;;;;;;;;6.86;74.08;99401.00;1730718;82;20117;-65
2022/05/18 05:10:02;;;;;;;;;;;;;;;6.84;74.35;99392.30;1718259;83;20085;-66
2022/05/18 05:12:29;;;;;;;;;;;;;;;6.81;74.59;99401.07;1718120;83;20087;-66
2022/05/18 05:14:56;;;;;;;;;;;;;;;6.83;74.65;99394.21;1717960;83;20125;-66
2022/05/18 05:17:22;;;;;;;;;;;;;;;6.87;74.99;99402.07;1718057;83;21160;-66
2022/05/18 05:19:48;;;;;;;;;;;;;;;6.91;75.25;99405.02;1718022;83;20166;-66
2022/05/18 05:22:15;;;;;;;;;;;;;;;6.97;74.91;99406.54;1718089;82;20097;-65
2022/05/18 05:24:41;;;;;;;;;;;;;;;7.02;74.92;99410.56;1718056;83;20575;-66
2022/05/18 05:27:08;;;;;;;;;;;;;;;7.03;75.20;99407.28;1718131;83;20125;-65
2022/05/18 05:29:34;;;;;;;;;;;;;;;7.03;74.78;99411.38;1718293;83;21150;-64
2022/05/18 05:32:08;;;;;;;;;;;;;;;6.98;75.15;99411.45;1717103;83;20519;-64
2022/05/18 05:34:36;;;;;;;;;;;;;;;7.00;75.15;99418.78;1717935;83;20097;-65
2022/05/18 05:37:03;;;;;;;;;;;;;;;6.96;74.94;99416.64;1718176;83;20085;-64
2022/05/18 05:39:29;;;;;;;;;;;;;;;6.90;75.38;99422.50;1731980;82;20170;-66
2022/05/18 05:41:56;;;;;;;;;;;;;;;6.84;75.38;99420.39;1746125;82;21149;-65
2022/05/18 05:44:22;;;;;;;;;;;;;;;6.80;75.49;99423.45;1744355;81;20504;-66
2022/05/18 05:46:50;;;;;;;;;;;;;;;6.77;75.81;99425.95;1744396;82;20191;-67
2022/05/18 05:49:17;;;;;;;;;;;;;;;6.75;76.24;99430.34;1744679;82;20394;-68
2022/05/18 05:51:43;;;;;;;;;;;;;;;6.70;76.89;99428.23;1744669;82;20202;-68
2022/05/18 05:54:09;;;;;;;;;;;;;;;6.67;77.86;99438.36;1743863;82;21132;-66
2022/05/18 05:56:36;;;;;;;;;;;;;;;6.62;78.23;99435.14;1744181;82;20130;-66
2022/05/18 05:59:02;;;;;;;;;;;;;;;6.62;78.78;99432.41;1744035;82;20110;-67
2022/05/18 06:01:29;;;;;;;;;;;;;;;6.64;79.51;99434.30;1744068;81;20170;-65
2022/05/18 06:03:55;;;;;;;;;;;;;;;6.62;79.54;99435.95;1745280;82;20083;-65
2022/05/18 06:06:23;;;;;;;;;;;;;;;6.62;80.28;99446.86;1745292;81;20130;-66
2022/05/18 06:08:50;;;;;;;;;;;;;;;6.64;81.23;99443.84;1745098;82;20762;-65
2022/05/18 06:11:16;;;;;;;;;;;;;;;6.70;81.68;99452.78;1745899;82;20150;-66
2022/05/18 06:13:42;;;;;;;;;;;;;;;6.71;81.77;99448.39;1745470;82;20119;-66
2022/05/18 06:16:09;;;;;;;;;;;;;;;6.69;82.36;99449.23;1745115;82;20090;-65
2022/05/18 06:18:36;;;;;;;;;;;;;;;6.67;82.85;99452.00;1745199;82;21148;-65
2022/05/18 06:21:03;;;;;;;;;;;;;;;6.69;83.24;99456.61;1744158;82;20589;-65
2022/05/18 06:23:30;;;;;;;;;;;;;;;6.75;84.58;99462.27;1743920;82;20126;-66
2022/05/18 06:26:01;;;;;;;;;;;;;;;6.79;84.45;99461.39;1745305;82;20099;-65
2022/05/18 06:28:28;;;;;;;;;;;;;;;6.76;83.68;99460.61;1745674;82;20099;-65
2022/05/18 06:30:54;;;;;;;;;;;;;;;6.62;84.10;99471.42;1747337;82;21161;-65
2022/05/18 06:33:21;;;;;;;;;;;;;;;6.61;85.17;99467.62;1746230;81;20095;-64
2022/05/18 06:35:51;;;;;;;;;;;;;;;6.68;85.19;99470.80;1739798;81;20451;-64
2022/05/18 06:38:17;;;;;;;;;;;;;;;6.67;85.31;99476.00;1741016;82;20126;-64
2022/05/18 06:43:29;;;;;;;;;;;;;;;6.64;86.62;99475.22;1746425;82;22058;-64
2022/05/18 06:45:57;;;;;;;;;;;;;;;6.71;87.65;99477.59;1746269;82;20171;-64
2022/05/18 06:48:23;;;;;;;;;;;;;;;6.83;87.94;99480.72;1746353;82;20138;-65
2022/05/18 06:50:50;;;;;;;;;;;;;;;6.82;87.01;99481.82;1746118;82;20120;-66
2022/05/18 06:53:17;;;;;;;;;;;;;;;6.82;88.06;99483.19;1746554;82;20618;-64
2022/05/18 06:55:43;;;;;;;;;;;;;;;6.89;88.07;99481.72;1746850;81;21130;-64
2022/05/18 06:58:09;;;;;;;;;;;;;;;6.93;87.42;99486.82;1748195;81;20435;-64
2022/05/18 07:00:37;;;;;;;;;;;;;;;6.93;87.35;99481.37;1747940;82;20471;-65
2022/05/18 07:03:04;;;;;;;;;;;;;;;6.96;87.65;99490.33;1747908;82;20114;-64
2022/05/18 07:05:33;;;;;;;;;;;;;;;7.04;88.30;99486.69;1748000;82;20402;-64
2022/05/18 07:08:00;;;;;;;;;;;;;;;7.04;87.56;99490.23;1752740;81;21852;-64
2022/05/18 07:10:28;;;;;;;;;;;;;;;7.00;88.38;99490.56;1712349;83;20103;-69
2022/05/18 07:12:55;;;;;;;;;;;;;;;7.05;88.80;99483.66;1713570;82;20159;-71
2022/05/18 07:15:22;;;;;;;;;;;;;;;7.07;88.93;99486.11;1752245;81;20141;-66
2022/05/18 07:17:48;;;;;;;;;;;;;;;7.06;89.02;99491.30;1714621;82;20143;-67
2022/05/18 07:20:15;;;;;;;;;;;;;;;7.17;90.08;99493.60;1750090;82;21116;-66
2022/05/18 07:22:41;;;;;;;;;;;;;;;7.32;90.35;99495.86;1699537;83;20122;-67
2022/05/18 07:25:08;;;;;;;;;;;;;;;7.40;87.89;99498.73;1683534;84;20169;-70
2022/05/18 07:27:35;;;;;;;;;;;;;;;7.37;87.68;99506.16;1722589;83;20519;-64
2022/05/18 07:30:03;;;;;;;;;;;;;;;7.32;88.27;99504.86;1685904;85;20114;-67
2022/05/18 07:32:30;;;;;;;;;;;;;;;7.35;89.40;99504.27;1685929;84;21160;-67
2022/05/18 07:34:56;;;;;;;;;;;;;;;7.40;89.38;99504.20;1722361;83;20175;-67
2022/05/18 07:37:23;;;;;;;;;;;;;;;7.37;88.91;99501.25;1685864;85;20133;-69
2022/05/18 07:39:50;;;;;;;;;;;;;;;7.32;89.43;99505.41;1700118;83;20119;-69
2022/05/18 07:42:16;;;;;;;;;;;;;;;7.22;89.87;99507.18;1752609;82;20113;-68
2022/05/18 07:44:42;;;;;;;;;;;;;;;7.21;91.38;99506.11;1714238;82;21057;-68
2022/05/18 07:47:09;;;;;;;;;;;;;;;7.15;91.17;99518.20;1710653;82;20106;-68
2022/05/18 07:49:39;;;;;;;;;;;;;;;7.11;91.50;99508.98;1730914;82;20085;-68
2022/05/18 07:52:07;;;;;;;;;;;;;;;7.10;92.74;99516.91;1717907;83;20085;-68
2022/05/18 07:54:33;;;;;;;;;;;;;;;7.07;93.55;99514.21;1718238;83;20085;-65
2022/05/18 07:57:00;;;;;;;;;;;;;;;7.08;94.44;99511.74;1717940;83;21271;-67
2022/05/18 07:59:26;;;;;;;;;;;;;;;7.14;94.94;99515.22;1717825;83;20121;-66
2022/05/18 08:01:52;;;;;;;;;;;;;;;7.12;94.33;99520.16;1718002;83;20093;-73
2022/05/18 08:04:19;;;;;;;;;;;;;;;7.11;95.17;99523.44;1718038;83;20573;-67
2022/05/18 08:06:45;;;;;;;;;;;;;;;7.11;95.16;99522.08;1718105;83;20097;-67
2022/05/18 08:09:12;;;;;;;;;;;;;;;7.12;96.33;99522.34;1728249;82;21137;-65
2022/05/18 08:15:05;;;;;;;;;;;;;;;7.11;96.41;99530.27;1743967;81;20442;-65
2022/05/18 08:16:52;;;;;;;;;;;;;;;7.13;96.98;99525.33;1710935;83;20119;-66
2022/05/18 08:19:19;;;;;;;;;;;;;;;7.21;97.84;99522.49;1731338;82;20109;-69
2022/05/18 08:21:47;;;;;;;;;;;;;;;7.28;97.31;99526.48;1700909;83;21152;-70
2022/05/18 08:24:13;;;;;;;;;;;;;;;7.28;97.74;99526.48;1697465;84;20097;-66
2022/05/18 08:26:42;;;;;;;;;;;;;;;7.31;98.00;99525.09;1699528;83;20456;-66
2022/05/18 08:29:08;;;;;;;;;;;;;;;7.29;97.65;99529.48;1719873;83;20173;-69
2022/05/18 08:31:35;;;;;;;;;;;;;;;7.26;98.07;99524.60;1726155;83;20087;-70
2022/05/18 08:34:01;;;;;;;;;;;;;;;7.24;98.50;99527.37;1725977;83;21141;-71
2022/05/18 08:36:27;;;;;;;;;;;;;;;7.24;98.91;99531.46;1724799;83;20115;-76
2022/05/18 08:38:54;;;;;;;;;;;;;;;7.25;99.21;99523.53;1725280;83;20187;-73
2022/05/18 08:41:25;;;;;;;;;;;;;;;7.27;99.63;99532.23;1725374;83;20083;-75
2022/05/18 08:43:55;;;;;;;;;;;;;;;7.34;99.85;99530.52;1725375;83;20095;-69
2022/05/18 08:46:34;;;;;;;;;;;;;;;7.37;99.67;99534.02;1729636;82;22161;-72
2022/05/18 08:49:39;;;;;;;;;;;;;;;7.37;99.75;99528.55;1744379;82;20121;-73
2022/05/18 08:52:36;;;;;;;;;;;;;;;7.36;99.95;99529.11;1741442;82;20165;-71
2022/05/18 08:55:38;;;;;;;;;;;;;;;7.33;99.81;99530.25;1726828;83;20450;-73
2022/05/18 08:58:02;;;;;;;;;;;;;;;7.35;100.00;99540.33;1725797;82;20458;-69
2022/05/18 09:00:32;;;;;;;;;;;;;;;7.38;100.00;99539.73;1726753;83;21086;-71
2022/05/18 09:03:15;;;;;;;;;;;;;;;7.35;100.00;99537.59;1725908;83;20123;-74
2022/05/18 09:06:01;;;;;;;;;;;;;;;7.35;100.00;99544.42;1726363;83;20083;-72
2022/05/18 09:08:35;;;;;;;;;;;;;;;7.36;100.00;99539.22;1726867;83;20126;-78
2022/05/18 09:11:08;;;;;;;;;;;;;;;7.38;100.00;99545.20;1749962;82;20505;-76
2022/05/18 09:13:36;;;;;;;;;;;;;;;7.35;100.00;99549.89;1721159;82;21120;-84
2022/05/18 09:16:26;;;;;;;;;;;;;;;7.34;100.00;99553.17;1720392;82;20088;-71
2022/05/18 09:19:18;;;;;;;;;;;;;;;7.36;100.00;99554.24;1710899;83;20142;-77
2022/05/18 09:21:58;;;;;;;;;;;;;;;7.36;100.00;99558.34;1698569;83;20110;-71
2022/05/18 09:24:49;;;;;;;;;;;;;;;7.28;100.00;99555.71;1686291;84;20114;-72
2022/05/18 09:27:31;;;;;;;;;;;;;;;7.25;100.00;99562.56;1686249;84;21237;-72
2022/05/18 09:30:13;;;;;;;;;;;;;;;7.25;100.00;99556.30;1686207;84;20090;-69
2022/05/18 09:33:02;;;;;;;;;;;;;;;7.23;100.00;99563.97;1686091;84;20097;-70
2022/05/18 09:35:35;;;;;;;;;;;;;;;7.25;100.00;99562.56;1685745;84;20108;-68
2022/05/18 09:38:05;;;;;;;;;;;;;;;7.27;100.00;99560.91;1685946;85;20437;-69
2022/05/18 09:40:34;;;;;;;;;;;;;;;7.24;100.00;99571.86;1685890;84;21145;-68
2022/05/18 09:43:10;;;;;;;;;;;;;;;7.24;100.00;99570.50;1688424;83;20228;-69
2022/05/18 09:45:41;;;;;;;;;;;;;;;7.23;100.00;99570.80;1707851;83;20426;-70
2022/05/18 09:48:11;;;;;;;;;;;;;;;7.18;100.00;99570.86;1714374;82;20462;-65
2022/05/18 09:50:39;;;;;;;;;;;;;;;7.18;100.00;99575.77;1714635;82;20084;-71
2022/05/18 09:53:06;;;;;;;;;;;;;;;7.21;100.00;99577.91;1706029;83;22069;-65
2022/05/18 09:55:32;;;;;;;;;;;;;;;7.20;100.00;99577.65;1689637;82;20131;-71
2022/05/18 09:58:12;;;;;;;;;;;;;;;7.16;100.00;99586.16;1685969;85;20094;-70
2022/05/18 10:00:39;;;;;;;;;;;;;;;7.16;100.00;99590.81;1685995;85;20082;-66
2022/05/18 10:08:57;;;;;;;;;;;;;;;7.20;100.00;99588.57;1675925;85;20418;-68
2022/05/18 10:11:26;;;;;;;;;;;;;;;7.21;100.00;99597.02;1689948;83;20084;-68
2022/05/18 10:14:01;;;;;;;;;;;;;;;7.21;100.00;99598.94;1697813;83;20137;-70
2022/05/18 10:16:47;;;;;;;;;;;;;;;7.22;100.00;99599.20;1688270;84;20120;-69
2022/05/18 10:19:17;;;;;;;;;;;;;;;7.20;100.00;99600.86;1699355;84;21180;-67
2022/05/18 10:21:56;;;;;;;;;;;;;;;7.21;100.00;99592.93;1699196;83;20475;-68
2022/05/18 10:24:28;;;;;;;;;;;;;;;7.20;100.00;99602.78;1699402;84;20173;-66
2022/05/18 10:27:16;;;;;;;;;;;;;;;7.19;100.00;99607.97;1699748;84;20405;-69
2022/05/18 10:29:52;;;;;;;;;;;;;;;7.18;100.00;99609.08;1699377;84;20113;-67
2022/05/18 10:32:23;;;;;;;;;;;;;;;7.18;100.00;99620.81;1708197;83;21058;-67
2022/05/18 10:34:51;;;;;;;;;;;;;;;7.17;100.00;99615.09;1727834;83;20428;-68
2022/05/18 10:37:30;;;;;;;;;;;;;;;7.21;100.00;99612.04;1728031;83;20164;-66
2022/05/18 10:40:13;;;;;;;;;;;;;;;7.22;100.00;99624.59;1727886;83;20436;-68
2022/05/18 10:42:44;;;;;;;;;;;;;;;7.25;100.00;99625.92;1722536;82;20150;-71
2022/05/18 10:45:29;;;;;;;;;;;;;;;7.26;100.00;99623.45;1712179;83;21179;-69
2022/05/18 10:48:04;;;;;;;;;;;;;;;7.30;100.00;99627.23;1683401;84;20090;-65
2022/05/18 10:50:34;;;;;;;;;;;;;;;7.35;100.00;99634.55;1699564;84;20157;-70
2022/05/18 10:53:15;;;;;;;;;;;;;;;7.41;100.00;99637.47;1723016;83;20480;-66
2022/05/18 10:56:05;;;;;;;;;;;;;;;7.47;100.00;99633.02;1748676;82;20169;-67
2022/05/18 10:58:44;;;;;;;;;;;;;;;7.52;100.00;99634.29;1748998;81;21098;-65
2022/05/18 11:01:23;;;;;;;;;;;;;;;7.56;100.00;99629.05;1721667;82;20445;-67
2022/05/18 11:04:05;;;;;;;;;;;;;;;7.60;100.00;99630.09;1744740;82;20154;-70
2022/05/18 11:06:34;;;;;;;;;;;;;;;7.68;100.00;99632.17;1699944;83;20146;-74
2022/05/18 11:09:03;;;;;;;;;;;;;;;7.78;100.00;99630.66;1704232;83;20451;-68
2022/05/18 11:11:52;;;;;;;;;;;;;;;7.83;100.00;99633.32;1704770;84;21047;-66
2022/05/18 11:14:41;;;;;;;;;;;;;;;7.85;100.00;99640.67;1704760;84;20173;-66
2022/05/18 11:17:27;;;;;;;;;;;;;;;7.88;100.00;99624.23;1710002;82;20146;-69
2022/05/18 11:20:03;;;;;;;;;;;;;;;7.93;100.00;99642.74;1742581;82;20094;-65
2022/05/18 11:23:02;;;;;;;;;;;;;;;8.02;100.00;99641.52;1718532;82;20433;-64
2022/05/18 11:25:55;;;;;;;;;;;;;;;8.12;100.00;99639.16;1718346;83;21227;-66
2022/05/18 11:28:28;;;;;;;;;;;;;;;8.21;100.00;99646.95;1718529;83;20458;-65
2022/05/18 11:31:13;;;;;;;;;;;;;;;8.21;100.00;99640.92;1718155;83;20420;-72
2022/05/18 11:33:53;;;;;;;;;;;;;;;8.33;100.00;99645.16;1718504;83;20093;-72
2022/05/18 11:36:41;;;;;;;;;;;;;;;8.68;100.00;99649.19;1717887;83;20476;-71
2022/05/18 11:39:20;;;;;;;;;;;;;;;9.14;100.00;99645.06;1718478;83;21081;-69
2022/05/18 11:41:58;;;;;;;;;;;;;;;9.49;100.00;99644.88;1685664;83;20105;-68
2022/05/18 11:44:49;;;;;;;;;;;;;;;9.56;97.14;99651.56;1718633;83;20113;-72
2022/05/18 11:47:21;;;;;;;;;;;;;;;9.45;94.91;99674.00;1718076;83;20117;-72
2022/05/18 11:49:56;;;;;;;;;;;;;;;9.28;95.86;99661.72;1718344;83;20085;-76
2022/05/18 11:52:35;;;;;;;;;;;;;;;9.14;94.99;99666.97;1717725;83;21186;-69
2022/05/18 11:55:11;;;;;;;;;;;;;;;9.03;95.82;99673.19;1718147;83;20642;-66
2022/05/18 11:57:47;;;;;;;;;;;;;;;8.91;96.49;99672.31;1730218;82;20114;-65
2022/05/18 12:00:39;;;;;;;;;;;;;;;8.83;97.24;99677.66;1724459;82;20094;-64
2022/05/18 12:02:52;;;;;;;;;;;;;;;8.74;96.84;99689.05;1743304;82;20436;-69
2022/05/18 12:05:57;;;;;;;;;;;;;;;8.65;98.04;99679.92;1733480;82;21143;-69
2022/05/18 12:08:47;;;;;;;;;;;;;;;8.59;98.30;99690.95;1717608;83;20428;-68
2022/05/18 12:11:29;;;;;;;;;;;;;;;8.56;98.59;99693.48;1717110;83;20156;-68
2022/05/18 12:14:20;;;;;;;;;;;;;;;8.53;98.49;99692.15;1722750;82;20945;-65
2022/05/18 12:17:05;;;;;;;;;;;;;;;8.51;98.30;99698.47;1725323;81;20149;-65
2022/05/18 12:19:53;;;;;;;;;;;;;;;8.53;98.20;99698.98;1717075;83;21164;-74
2022/05/18 12:22:23;;;;;;;;;;;;;;;8.62;99.09;99704.59;1717493;82;20452;-70
2022/05/18 12:24:49;;;;;;;;;;;;;;;8.74;98.93;99705.47;1717263;83;20101;-69
2022/05/18 12:27:17;;;;;;;;;;;;;;;8.79;98.15;99708.12;1717441;83;20164;-68
2022/05/18 12:29:45;;;;;;;;;;;;;;;8.83;98.12;99705.04;1717470;83;20141;-65
2022/05/18 12:32:12;;;;;;;;;;;;;;;8.82;96.92;99711.07;1717605;83;21124;-76
2022/05/18 12:35:07;;;;;;;;;;;;;;;8.77;96.23;99715.81;1717378;83;20116;-66
2022/05/18 12:37:39;;;;;;;;;;;;;;;8.72;95.88;99724.11;1721746;82;20147;-66
2022/05/18 12:40:08;;;;;;;;;;;;;;;8.66;94.75;99713.02;1739257;82;20143;-65
2022/05/18 12:42:39;;;;;;;;;;;;;;;8.63;93.92;99723.20;1745534;82;20144;-68
2022/05/18 12:45:23;;;;;;;;;;;;;;;8.69;94.46;99721.97;1746984;82;21249;-69
2022/05/18 12:47:52;;;;;;;;;;;;;;;8.79;93.65;99728.09;1745687;82;20136;-68
2022/05/18 12:50:22;;;;;;;;;;;;;;;8.92;94.29;99729.25;1747132;81;20143;-68
2022/05/18 12:53:02;;;;;;;;;;;;;;;9.03;93.34;99722.48;1736225;82;20165;-69
2022/05/18 12:55:35;;;;;;;;;;;;;;;9.14;93.23;99723.92;1728711;81;20154;-70
2022/05/18 12:58:07;;;;;;;;;;;;;;;9.20;92.79;99734.23;1732623;82;21173;-70
2022/05/18 13:00:40;;;;;;;;;;;;;;;9.25;92.90;99740.95;1745519;82;20134;-67
2022/05/18 13:03:13;;;;;;;;;;;;;;;9.30;90.80;99732.64;1733754;82;20117;-71
2022/05/18 13:05:45;;;;;;;;;;;;;;;9.34;91.30;99740.52;1736384;82;20178;-67
2022/05/18 13:08:17;;;;;;;;;;;;;;;9.35;90.12;99752.28;1717451;83;20173;-69
2022/05/18 13:11:07;;;;;;;;;;;;;;;9.33;89.72;99740.26;1698207;83;21158;-66
2022/05/18 13:13:55;;;;;;;;;;;;;;;9.32;88.80;99745.48;1717434;83;20090;-65
2022/05/18 13:16:43;;;;;;;;;;;;;;;9.32;89.32;99746.05;1700819;83;20464;-70
2022/05/18 13:19:17;;;;;;;;;;;;;;;9.34;89.35;99746.00;1717610;83;20179;-67
2022/05/18 13:22:13;;;;;;;;;;;;;;;9.37;88.63;99746.77;1717398;82;20193;-66
2022/05/18 13:24:45;;;;;;;;;;;;;;;9.39;87.85;99738.23;1717568;83;21171;-73
2022/05/18 13:27:14;;;;;;;;;;;;;;;9.41;88.69;99745.59;1717687;83;20432;-72
2022/05/18 13:29:41;;;;;;;;;;;;;;;9.44;87.96;99748.55;1717462;83;20441;-74
2022/05/18 13:32:09;;;;;;;;;;;;;;;9.47;87.51;99751.23;1717412;83;20129;-69